sensor_id;sensor_type;location;lat;lon;timestamp;P1;durP1;ratioP1;P2;durP2;ratioP2
50683;SDS011;36654;45.042;38.994;2022-07-04T00:00:16;11.93;;;6.43;;
50683;SDS011;36654;45.042;38.994;2022-07-04T00:02:43;13.30;;;6.40;;
50683;SDS011;36654;45.042;38.994;2022-07-04T00:05:10;12.23;;;6.28;;
50683;SDS011;36654;45.042;38.994;2022-07-04T00:07:37;10.07;;;6.35;;
50683;SDS011;36654;45.042;38.994;2022-07-04T00:10:04;13.30;;;6.72;;
50683;SDS011;36654;45.042;38.994;2022-07-04T00:12:31;13.85;;;6.95;;
50683;SDS011;36654;45.042;38.994;2022-07-04T00:14:57;14.60;;;6.57;;
50683;SDS011;36654;45.042;38.994;2022-07-04T00:17:23;12.70;;;6.40;;
50683;SDS011;36654;45.042;38.994;2022-07-04T00:19:48;12.75;;;7.15;;
50683;SDS011;36654;45.042;38.994;2022-07-04T00:22:14;11.57;;;6.57;;
50683;SDS011;36654;45.042;38.994;2022-07-04T00:24:39;13.98;;;6.68;;
50683;SDS011;36654;45.042;38.994;2022-07-04T00:27:05;11.05;;;6.68;;
50683;SDS011;36654;45.042;38.994;2022-07-04T00:29:31;11.35;;;6.78;;
50683;SDS011;36654;45.042;38.994;2022-07-04T00:31:58;15.57;;;6.40;;
50683;SDS011;36654;45.042;38.994;2022-07-04T00:34:24;14.02;;;6.28;;
50683;SDS011;36654;45.042;38.994;2022-07-04T00:36:50;10.70;;;5.80;;
50683;SDS011;36654;45.042;38.994;2022-07-04T00:39:16;14.73;;;6.38;;
50683;SDS011;36654;45.042;38.994;2022-07-04T00:41:42;10.02;;;6.00;;
50683;SDS011;36654;45.042;38.994;2022-07-04T00:44:09;11.45;;;6.38;;
50683;SDS011;36654;45.042;38.994;2022-07-04T00:46:36;14.73;;;6.88;;
50683;SDS011;36654;45.042;38.994;2022-07-04T00:49:05;10.70;;;6.28;;
50683;SDS011;36654;45.042;38.994;2022-07-04T00:51:32;10.10;;;6.63;;
50683;SDS011;36654;45.042;38.994;2022-07-04T00:53:58;11.50;;;6.38;;
50683;SDS011;36654;45.042;38.994;2022-07-04T00:56:24;11.07;;;6.28;;
50683;SDS011;36654;45.042;38.994;2022-07-04T00:58:51;11.18;;;6.25;;
50683;SDS011;36654;45.042;38.994;2022-07-04T01:01:21;12.43;;;6.78;;
50683;SDS011;36654;45.042;38.994;2022-07-04T01:03:47;16.05;;;7.32;;
50683;SDS011;36654;45.042;38.994;2022-07-04T01:06:14;13.32;;;7.32;;
50683;SDS011;36654;45.042;38.994;2022-07-04T01:08:42;12.77;;;6.90;;
50683;SDS011;36654;45.042;38.994;2022-07-04T01:11:08;15.57;;;7.70;;
50683;SDS011;36654;45.042;38.994;2022-07-04T01:13:35;10.90;;;6.60;;
50683;SDS011;36654;45.042;38.994;2022-07-04T01:16:01;13.93;;;7.60;;
50683;SDS011;36654;45.042;38.994;2022-07-04T01:18:28;12.27;;;7.70;;
50683;SDS011;36654;45.042;38.994;2022-07-04T01:20:54;14.18;;;8.30;;
50683;SDS011;36654;45.042;38.994;2022-07-04T01:23:20;11.23;;;6.65;;
50683;SDS011;36654;45.042;38.994;2022-07-04T01:25:46;12.68;;;7.00;;
50683;SDS011;36654;45.042;38.994;2022-07-04T01:28:13;13.98;;;7.55;;
50683;SDS011;36654;45.042;38.994;2022-07-04T01:30:39;14.43;;;7.30;;
50683;SDS011;36654;45.042;38.994;2022-07-04T01:33:05;13.50;;;6.82;;
50683;SDS011;36654;45.042;38.994;2022-07-04T01:35:30;11.35;;;7.00;;
50683;SDS011;36654;45.042;38.994;2022-07-04T01:37:56;12.63;;;7.47;;
50683;SDS011;36654;45.042;38.994;2022-07-04T01:40:22;12.73;;;7.47;;
50683;SDS011;36654;45.042;38.994;2022-07-04T01:42:48;14.95;;;7.15;;
50683;SDS011;36654;45.042;38.994;2022-07-04T01:45:14;13.90;;;7.25;;
50683;SDS011;36654;45.042;38.994;2022-07-04T01:47:40;14.07;;;7.07;;
50683;SDS011;36654;45.042;38.994;2022-07-04T01:50:06;11.43;;;7.05;;
50683;SDS011;36654;45.042;38.994;2022-07-04T01:52:34;14.50;;;7.68;;
50683;SDS011;36654;45.042;38.994;2022-07-04T01:54:59;13.68;;;7.07;;
50683;SDS011;36654;45.042;38.994;2022-07-04T01:57:25;13.07;;;7.03;;
50683;SDS011;36654;45.042;38.994;2022-07-04T01:59:51;12.68;;;7.28;;
50683;SDS011;36654;45.042;38.994;2022-07-04T02:02:35;16.60;;;7.03;;
50683;SDS011;36654;45.042;38.994;2022-07-04T02:05:02;12.50;;;6.90;;
50683;SDS011;36654;45.042;38.994;2022-07-04T02:07:31;14.23;;;7.55;;
50683;SDS011;36654;45.042;38.994;2022-07-04T02:09:56;12.07;;;7.05;;
50683;SDS011;36654;45.042;38.994;2022-07-04T02:12:22;13.48;;;7.18;;
50683;SDS011;36654;45.042;38.994;2022-07-04T02:15:06;13.60;;;7.10;;
50683;SDS011;36654;45.042;38.994;2022-07-04T02:17:32;13.40;;;6.55;;
50683;SDS011;36654;45.042;38.994;2022-07-04T02:19:59;10.55;;;6.30;;
50683;SDS011;36654;45.042;38.994;2022-07-04T02:22:25;13.48;;;7.20;;
50683;SDS011;36654;45.042;38.994;2022-07-04T02:24:50;12.35;;;6.22;;
50683;SDS011;36654;45.042;38.994;2022-07-04T02:27:16;11.25;;;6.65;;
50683;SDS011;36654;45.042;38.994;2022-07-04T02:29:42;12.45;;;6.40;;
50683;SDS011;36654;45.042;38.994;2022-07-04T02:32:07;13.80;;;6.80;;
50683;SDS011;36654;45.042;38.994;2022-07-04T02:34:34;13.23;;;6.53;;
50683;SDS011;36654;45.042;38.994;2022-07-04T02:37:00;13.73;;;6.68;;
50683;SDS011;36654;45.042;38.994;2022-07-04T02:39:25;13.48;;;6.80;;
50683;SDS011;36654;45.042;38.994;2022-07-04T02:41:51;10.93;;;6.43;;
50683;SDS011;36654;45.042;38.994;2022-07-04T02:44:17;14.20;;;6.70;;
50683;SDS011;36654;45.042;38.994;2022-07-04T02:46:43;10.38;;;6.32;;
50683;SDS011;36654;45.042;38.994;2022-07-04T02:49:08;10.80;;;6.40;;
50683;SDS011;36654;45.042;38.994;2022-07-04T02:51:34;13.23;;;6.97;;
50683;SDS011;36654;45.042;38.994;2022-07-04T02:54:00;14.10;;;6.75;;
50683;SDS011;36654;45.042;38.994;2022-07-04T02:56:25;14.98;;;7.07;;
50683;SDS011;36654;45.042;38.994;2022-07-04T02:58:51;10.80;;;6.18;;
50683;SDS011;36654;45.042;38.994;2022-07-04T03:01:18;9.68;;;6.30;;
50683;SDS011;36654;45.042;38.994;2022-07-04T03:03:44;13.13;;;6.10;;
50683;SDS011;36654;45.042;38.994;2022-07-04T03:06:10;11.80;;;5.85;;
50683;SDS011;36654;45.042;38.994;2022-07-04T03:08:37;9.30;;;5.90;;
50683;SDS011;36654;45.042;38.994;2022-07-04T03:11:03;11.55;;;5.60;;
50683;SDS011;36654;45.042;38.994;2022-07-04T03:13:30;10.38;;;5.32;;
50683;SDS011;36654;45.042;38.994;2022-07-04T03:15:56;10.52;;;5.55;;
50683;SDS011;36654;45.042;38.994;2022-07-04T03:18:22;9.45;;;5.78;;
50683;SDS011;36654;45.042;38.994;2022-07-04T03:20:47;10.95;;;5.65;;
50683;SDS011;36654;45.042;38.994;2022-07-04T03:23:13;12.95;;;5.95;;
50683;SDS011;36654;45.042;38.994;2022-07-04T03:25:39;12.73;;;5.65;;
50683;SDS011;36654;45.042;38.994;2022-07-04T03:28:05;11.10;;;5.72;;
50683;SDS011;36654;45.042;38.994;2022-07-04T03:30:32;10.85;;;5.50;;
50683;SDS011;36654;45.042;38.994;2022-07-04T03:32:58;11.10;;;5.28;;
50683;SDS011;36654;45.042;38.994;2022-07-04T03:35:24;12.57;;;5.85;;
50683;SDS011;36654;45.042;38.994;2022-07-04T03:37:50;10.10;;;5.40;;
50683;SDS011;36654;45.042;38.994;2022-07-04T03:40:16;9.25;;;4.88;;
50683;SDS011;36654;45.042;38.994;2022-07-04T03:42:43;11.65;;;5.13;;
50683;SDS011;36654;45.042;38.994;2022-07-04T03:45:09;10.98;;;5.10;;
50683;SDS011;36654;45.042;38.994;2022-07-04T03:47:35;10.05;;;5.28;;
50683;SDS011;36654;45.042;38.994;2022-07-04T03:50:02;11.68;;;5.13;;
50683;SDS011;36654;45.042;38.994;2022-07-04T03:52:28;10.18;;;5.15;;
50683;SDS011;36654;45.042;38.994;2022-07-04T03:54:54;9.60;;;4.72;;
50683;SDS011;36654;45.042;38.994;2022-07-04T03:57:20;11.18;;;5.10;;
50683;SDS011;36654;45.042;38.994;2022-07-04T03:59:46;11.18;;;4.82;;
50683;SDS011;36654;45.042;38.994;2022-07-04T04:02:12;10.50;;;4.90;;
50683;SDS011;36654;45.042;38.994;2022-07-04T04:04:38;11.15;;;4.97;;
50683;SDS011;36654;45.042;38.994;2022-07-04T04:07:22;8.10;;;5.20;;
50683;SDS011;36654;45.042;38.994;2022-07-04T04:09:47;14.15;;;5.00;;
50683;SDS011;36654;45.042;38.994;2022-07-04T04:12:13;10.05;;;5.07;;
50683;SDS011;36654;45.042;38.994;2022-07-04T04:14:39;12.98;;;5.45;;
50683;SDS011;36654;45.042;38.994;2022-07-04T04:17:05;9.48;;;5.07;;
50683;SDS011;36654;45.042;38.994;2022-07-04T04:19:31;11.57;;;5.18;;
50683;SDS011;36654;45.042;38.994;2022-07-04T04:21:56;9.90;;;4.75;;
50683;SDS011;36654;45.042;38.994;2022-07-04T04:24:22;11.57;;;4.88;;
50683;SDS011;36654;45.042;38.994;2022-07-04T04:26:47;9.15;;;4.55;;
50683;SDS011;36654;45.042;38.994;2022-07-04T04:29:13;11.55;;;4.75;;
50683;SDS011;36654;45.042;38.994;2022-07-04T04:31:39;9.00;;;4.50;;
50683;SDS011;36654;45.042;38.994;2022-07-04T04:34:04;8.60;;;4.10;;
50683;SDS011;36654;45.042;38.994;2022-07-04T04:36:30;12.73;;;4.60;;
50683;SDS011;36654;45.042;38.994;2022-07-04T04:38:56;9.63;;;4.40;;
50683;SDS011;36654;45.042;38.994;2022-07-04T04:41:21;10.60;;;4.63;;
50683;SDS011;36654;45.042;38.994;2022-07-04T04:43:47;7.65;;;4.25;;
50683;SDS011;36654;45.042;38.994;2022-07-04T04:46:13;9.38;;;4.30;;
50683;SDS011;36654;45.042;38.994;2022-07-04T04:48:39;11.60;;;4.30;;
50683;SDS011;36654;45.042;38.994;2022-07-04T04:51:05;7.32;;;3.97;;
50683;SDS011;36654;45.042;38.994;2022-07-04T04:53:30;6.85;;;3.88;;
50683;SDS011;36654;45.042;38.994;2022-07-04T04:55:56;7.88;;;4.18;;
50683;SDS011;36654;45.042;38.994;2022-07-04T04:58:22;7.15;;;4.25;;
50683;SDS011;36654;45.042;38.994;2022-07-04T05:00:48;7.50;;;4.10;;
50683;SDS011;36654;45.042;38.994;2022-07-04T05:03:17;9.10;;;4.22;;
50683;SDS011;36654;45.042;38.994;2022-07-04T05:05:44;10.65;;;4.40;;
50683;SDS011;36654;45.042;38.994;2022-07-04T05:08:10;7.05;;;4.43;;
50683;SDS011;36654;45.042;38.994;2022-07-04T05:10:40;8.68;;;4.47;;
50683;SDS011;36654;45.042;38.994;2022-07-04T05:13:06;10.05;;;4.38;;
50683;SDS011;36654;45.042;38.994;2022-07-04T05:15:32;8.38;;;4.10;;
50683;SDS011;36654;45.042;38.994;2022-07-04T05:17:58;9.13;;;4.30;;
50683;SDS011;36654;45.042;38.994;2022-07-04T05:20:24;10.57;;;4.00;;
50683;SDS011;36654;45.042;38.994;2022-07-04T05:22:50;7.95;;;4.22;;
50683;SDS011;36654;45.042;38.994;2022-07-04T05:25:15;6.90;;;3.95;;
50683;SDS011;36654;45.042;38.994;2022-07-04T05:27:41;10.57;;;4.65;;
50683;SDS011;36654;45.042;38.994;2022-07-04T05:30:07;8.25;;;4.53;;
50683;SDS011;36654;45.042;38.994;2022-07-04T05:32:33;9.18;;;4.55;;
50683;SDS011;36654;45.042;38.994;2022-07-04T05:34:59;14.50;;;4.72;;
50683;SDS011;36654;45.042;38.994;2022-07-04T05:37:25;9.35;;;3.95;;
50683;SDS011;36654;45.042;38.994;2022-07-04T05:39:51;9.23;;;4.57;;
50683;SDS011;36654;45.042;38.994;2022-07-04T05:42:17;8.82;;;4.75;;
50683;SDS011;36654;45.042;38.994;2022-07-04T05:44:43;8.95;;;4.00;;
50683;SDS011;36654;45.042;38.994;2022-07-04T05:47:09;9.45;;;4.30;;
50683;SDS011;36654;45.042;38.994;2022-07-04T05:49:34;8.75;;;3.90;;
50683;SDS011;36654;45.042;38.994;2022-07-04T05:52:01;7.22;;;3.90;;
50683;SDS011;36654;45.042;38.994;2022-07-04T05:54:27;9.68;;;3.92;;
50683;SDS011;36654;45.042;38.994;2022-07-04T05:56:53;8.45;;;4.63;;
50683;SDS011;36654;45.042;38.994;2022-07-04T05:59:18;8.02;;;4.28;;
50683;SDS011;36654;45.042;38.994;2022-07-04T06:01:44;6.75;;;4.10;;
50683;SDS011;36654;45.042;38.994;2022-07-04T06:04:10;7.53;;;3.90;;
50683;SDS011;36654;45.042;38.994;2022-07-04T06:06:36;7.78;;;3.75;;
50683;SDS011;36654;45.042;38.994;2022-07-04T06:09:02;9.25;;;3.60;;
50683;SDS011;36654;45.042;38.994;2022-07-04T06:11:28;8.73;;;3.67;;
50683;SDS011;36654;45.042;38.994;2022-07-04T06:13:54;7.43;;;3.83;;
50683;SDS011;36654;45.042;38.994;2022-07-04T06:16:20;7.60;;;3.72;;
50683;SDS011;36654;45.042;38.994;2022-07-04T06:18:46;7.10;;;3.92;;
50683;SDS011;36654;45.042;38.994;2022-07-04T06:21:11;8.43;;;3.90;;
50683;SDS011;36654;45.042;38.994;2022-07-04T06:23:37;7.93;;;3.72;;
50683;SDS011;36654;45.042;38.994;2022-07-04T06:26:03;10.15;;;4.10;;
50683;SDS011;36654;45.042;38.994;2022-07-04T06:28:28;8.32;;;4.00;;
50683;SDS011;36654;45.042;38.994;2022-07-04T06:30:54;9.23;;;3.95;;
50683;SDS011;36654;45.042;38.994;2022-07-04T06:33:20;10.00;;;4.00;;
50683;SDS011;36654;45.042;38.994;2022-07-04T06:35:46;7.90;;;4.13;;
50683;SDS011;36654;45.042;38.994;2022-07-04T06:38:20;7.25;;;4.28;;
50683;SDS011;36654;45.042;38.994;2022-07-04T06:40:50;8.25;;;3.80;;
50683;SDS011;36654;45.042;38.994;2022-07-04T06:43:19;11.88;;;4.32;;
50683;SDS011;36654;45.042;38.994;2022-07-04T06:45:44;8.88;;;4.35;;
50683;SDS011;36654;45.042;38.994;2022-07-04T06:48:10;8.88;;;4.50;;
50683;SDS011;36654;45.042;38.994;2022-07-04T06:50:36;7.93;;;4.65;;
50683;SDS011;36654;45.042;38.994;2022-07-04T06:53:03;10.27;;;4.53;;
50683;SDS011;36654;45.042;38.994;2022-07-04T06:55:37;11.52;;;4.55;;
50683;SDS011;36654;45.042;38.994;2022-07-04T06:58:03;11.65;;;5.00;;
50683;SDS011;36654;45.042;38.994;2022-07-04T07:00:29;11.95;;;6.25;;
50683;SDS011;36654;45.042;38.994;2022-07-04T07:02:56;10.13;;;5.55;;
50683;SDS011;36654;45.042;38.994;2022-07-04T07:05:25;9.13;;;5.35;;
50683;SDS011;36654;45.042;38.994;2022-07-04T07:07:52;8.82;;;4.65;;
50683;SDS011;36654;45.042;38.994;2022-07-04T07:10:18;13.20;;;4.63;;
50683;SDS011;36654;45.042;38.994;2022-07-04T07:12:43;10.55;;;4.70;;
50683;SDS011;36654;45.042;38.994;2022-07-04T07:15:09;9.50;;;4.20;;
50683;SDS011;36654;45.042;38.994;2022-07-04T07:17:35;8.52;;;4.43;;
50683;SDS011;36654;45.042;38.994;2022-07-04T07:20:01;8.00;;;4.10;;
50683;SDS011;36654;45.042;38.994;2022-07-04T07:22:27;9.48;;;5.30;;
50683;SDS011;36654;45.042;38.994;2022-07-04T07:24:53;12.80;;;4.20;;
50683;SDS011;36654;45.042;38.994;2022-07-04T07:27:18;9.60;;;4.70;;
50683;SDS011;36654;45.042;38.994;2022-07-04T07:29:44;9.32;;;4.25;;
50683;SDS011;36654;45.042;38.994;2022-07-04T07:32:10;8.60;;;4.07;;
50683;SDS011;36654;45.042;38.994;2022-07-04T07:34:35;12.40;;;4.40;;
50683;SDS011;36654;45.042;38.994;2022-07-04T07:37:01;13.68;;;7.65;;
50683;SDS011;36654;45.042;38.994;2022-07-04T07:39:27;12.00;;;5.05;;
50683;SDS011;36654;45.042;38.994;2022-07-04T07:41:53;12.05;;;6.03;;
50683;SDS011;36654;45.042;38.994;2022-07-04T07:44:18;13.23;;;4.78;;
50683;SDS011;36654;45.042;38.994;2022-07-04T07:46:44;9.20;;;4.70;;
50683;SDS011;36654;45.042;38.994;2022-07-04T07:49:10;9.52;;;4.78;;
50683;SDS011;36654;45.042;38.994;2022-07-04T07:51:35;10.15;;;4.78;;
50683;SDS011;36654;45.042;38.994;2022-07-04T07:54:01;10.55;;;5.00;;
50683;SDS011;36654;45.042;38.994;2022-07-04T07:56:27;11.77;;;4.55;;
50683;SDS011;36654;45.042;38.994;2022-07-04T07:58:53;8.27;;;4.70;;
50683;SDS011;36654;45.042;38.994;2022-07-04T08:01:18;11.88;;;5.28;;
50683;SDS011;36654;45.042;38.994;2022-07-04T08:03:45;9.75;;;4.88;;
50683;SDS011;36654;45.042;38.994;2022-07-04T08:08:55;11.07;;;5.10;;
50683;SDS011;36654;45.042;38.994;2022-07-04T08:11:21;9.55;;;4.53;;
50683;SDS011;36654;45.042;38.994;2022-07-04T08:13:47;7.53;;;4.30;;
50683;SDS011;36654;45.042;38.994;2022-07-04T08:16:12;8.80;;;4.82;;
50683;SDS011;36654;45.042;38.994;2022-07-04T08:18:38;9.65;;;4.78;;
50683;SDS011;36654;45.042;38.994;2022-07-04T08:21:04;9.82;;;5.05;;
50683;SDS011;36654;45.042;38.994;2022-07-04T08:23:31;7.90;;;5.25;;
50683;SDS011;36654;45.042;38.994;2022-07-04T08:25:59;11.35;;;4.85;;
50683;SDS011;36654;45.042;38.994;2022-07-04T08:28:25;11.48;;;5.03;;
50683;SDS011;36654;45.042;38.994;2022-07-04T08:30:52;13.93;;;8.00;;
50683;SDS011;36654;45.042;38.994;2022-07-04T08:33:17;15.32;;;4.55;;
50683;SDS011;36654;45.042;38.994;2022-07-04T08:35:43;10.63;;;5.05;;
50683;SDS011;36654;45.042;38.994;2022-07-04T08:38:09;11.13;;;4.88;;
50683;SDS011;36654;45.042;38.994;2022-07-04T08:40:35;10.63;;;5.13;;
50683;SDS011;36654;45.042;38.994;2022-07-04T08:43:01;10.35;;;5.07;;
50683;SDS011;36654;45.042;38.994;2022-07-04T08:45:30;11.82;;;5.10;;
50683;SDS011;36654;45.042;38.994;2022-07-04T08:48:03;10.63;;;5.47;;
50683;SDS011;36654;45.042;38.994;2022-07-04T08:50:34;11.38;;;5.25;;
50683;SDS011;36654;45.042;38.994;2022-07-04T08:53:02;11.98;;;5.22;;
50683;SDS011;36654;45.042;38.994;2022-07-04T08:55:31;14.75;;;6.00;;
50683;SDS011;36654;45.042;38.994;2022-07-04T09:00:51;12.80;;;5.38;;
50683;SDS011;36654;45.042;38.994;2022-07-04T09:03:18;13.60;;;5.47;;
50683;SDS011;36654;45.042;38.994;2022-07-04T09:05:44;9.80;;;4.72;;
50683;SDS011;36654;45.042;38.994;2022-07-04T09:08:10;10.43;;;5.00;;
50683;SDS011;36654;45.042;38.994;2022-07-04T09:10:36;10.60;;;4.88;;
50683;SDS011;36654;45.042;38.994;2022-07-04T09:13:03;11.23;;;5.22;;
50683;SDS011;36654;45.042;38.994;2022-07-04T09:15:30;12.35;;;5.38;;
50683;SDS011;36654;45.042;38.994;2022-07-04T09:17:57;10.18;;;4.90;;
50683;SDS011;36654;45.042;38.994;2022-07-04T09:20:23;11.57;;;5.80;;
50683;SDS011;36654;45.042;38.994;2022-07-04T09:22:50;9.95;;;5.38;;
50683;SDS011;36654;45.042;38.994;2022-07-04T09:25:18;12.45;;;6.25;;
50683;SDS011;36654;45.042;38.994;2022-07-04T09:27:45;13.82;;;7.97;;
50683;SDS011;36654;45.042;38.994;2022-07-04T09:30:17;10.60;;;6.20;;
50683;SDS011;36654;45.042;38.994;2022-07-04T09:32:50;10.48;;;6.22;;
50683;SDS011;36654;45.042;38.994;2022-07-04T09:35:23;13.07;;;8.02;;
50683;SDS011;36654;45.042;38.994;2022-07-04T09:37:50;11.25;;;5.45;;
50683;SDS011;36654;45.042;38.994;2022-07-04T09:40:30;16.77;;;9.98;;
50683;SDS011;36654;45.042;38.994;2022-07-04T09:43:23;11.52;;;6.13;;
50683;SDS011;36654;45.042;38.994;2022-07-04T09:45:54;11.00;;;5.65;;
50683;SDS011;36654;45.042;38.994;2022-07-04T09:48:20;12.10;;;5.68;;
50683;SDS011;36654;45.042;38.994;2022-07-04T09:50:46;11.63;;;5.85;;
50683;SDS011;36654;45.042;38.994;2022-07-04T09:53:12;8.43;;;5.38;;
50683;SDS011;36654;45.042;38.994;2022-07-04T09:55:38;14.38;;;5.50;;
50683;SDS011;36654;45.042;38.994;2022-07-04T09:58:05;10.02;;;5.30;;
50683;SDS011;36654;45.042;38.994;2022-07-04T10:06:07;11.88;;;5.68;;
50683;SDS011;36654;45.042;38.994;2022-07-04T10:08:37;10.00;;;5.38;;
50683;SDS011;36654;45.042;38.994;2022-07-04T10:11:04;10.52;;;5.10;;
50683;SDS011;36654;45.042;38.994;2022-07-04T10:13:31;12.52;;;5.50;;
50683;SDS011;36654;45.042;38.994;2022-07-04T10:15:57;13.98;;;6.05;;
50683;SDS011;36654;45.042;38.994;2022-07-04T10:18:24;12.88;;;5.90;;
50683;SDS011;36654;45.042;38.994;2022-07-04T10:20:51;12.43;;;5.45;;
50683;SDS011;36654;45.042;38.994;2022-07-04T10:23:18;10.35;;;5.60;;
50683;SDS011;36654;45.042;38.994;2022-07-04T10:25:48;10.50;;;5.63;;
50683;SDS011;36654;45.042;38.994;2022-07-04T10:28:18;12.18;;;5.75;;
50683;SDS011;36654;45.042;38.994;2022-07-04T10:30:45;10.18;;;5.55;;
50683;SDS011;36654;45.042;38.994;2022-07-04T10:33:14;10.13;;;5.70;;
50683;SDS011;36654;45.042;38.994;2022-07-04T10:38:19;11.70;;;5.22;;
50683;SDS011;36654;45.042;38.994;2022-07-04T10:40:56;11.88;;;5.47;;
50683;SDS011;36654;45.042;38.994;2022-07-04T10:48:57;14.85;;;6.00;;
50683;SDS011;36654;45.042;38.994;2022-07-04T10:54:17;10.57;;;5.95;;
50683;SDS011;36654;45.042;38.994;2022-07-04T11:00:22;11.27;;;5.60;;
50683;SDS011;36654;45.042;38.994;2022-07-04T11:02:36;9.77;;;5.90;;
50683;SDS011;36654;45.042;38.994;2022-07-04T11:05:07;10.32;;;5.20;;
50683;SDS011;36654;45.042;38.994;2022-07-04T11:18:01;10.88;;;5.47;;
50683;SDS011;36654;45.042;38.994;2022-07-04T11:20:31;10.80;;;6.15;;
50683;SDS011;36654;45.042;38.994;2022-07-04T11:23:04;11.85;;;5.57;;
50683;SDS011;36654;45.042;38.994;2022-07-04T11:25:31;10.68;;;5.97;;
50683;SDS011;36654;45.042;38.994;2022-07-04T11:27:57;11.55;;;5.95;;
50683;SDS011;36654;45.042;38.994;2022-07-04T11:30:23;8.85;;;5.43;;
50683;SDS011;36654;45.042;38.994;2022-07-04T11:32:48;9.40;;;5.60;;
50683;SDS011;36654;45.042;38.994;2022-07-04T11:35:19;9.05;;;5.50;;
50683;SDS011;36654;45.042;38.994;2022-07-04T11:37:45;10.05;;;4.93;;
50683;SDS011;36654;45.042;38.994;2022-07-04T11:40:20;10.93;;;5.70;;
50683;SDS011;36654;45.042;38.994;2022-07-04T11:43:05;9.43;;;5.80;;
50683;SDS011;36654;45.042;38.994;2022-07-04T11:45:50;9.18;;;5.65;;
50683;SDS011;36654;45.042;38.994;2022-07-04T11:48:20;8.88;;;5.50;;
50683;SDS011;36654;45.042;38.994;2022-07-04T11:50:46;10.52;;;5.60;;
50683;SDS011;36654;45.042;38.994;2022-07-04T11:53:12;9.57;;;5.40;;
50683;SDS011;36654;45.042;38.994;2022-07-04T11:55:37;9.10;;;5.18;;
50683;SDS011;36654;45.042;38.994;2022-07-04T11:58:03;8.45;;;5.70;;
50683;SDS011;36654;45.042;38.994;2022-07-04T12:00:29;14.30;;;5.68;;
50683;SDS011;36654;45.042;38.994;2022-07-04T12:03:00;12.32;;;5.88;;
50683;SDS011;36654;45.042;38.994;2022-07-04T12:05:26;11.95;;;5.13;;
50683;SDS011;36654;45.042;38.994;2022-07-04T12:07:52;13.05;;;6.13;;
50683;SDS011;36654;45.042;38.994;2022-07-04T12:10:22;12.23;;;5.60;;
50683;SDS011;36654;45.042;38.994;2022-07-04T12:15:25;10.38;;;5.30;;
50683;SDS011;36654;45.042;38.994;2022-07-04T12:18:01;12.15;;;5.80;;
50683;SDS011;36654;45.042;38.994;2022-07-04T12:20:27;10.23;;;5.53;;
50683;SDS011;36654;45.042;38.994;2022-07-04T12:22:57;12.02;;;5.20;;
50683;SDS011;36654;45.042;38.994;2022-07-04T12:25:25;9.38;;;5.05;;
50683;SDS011;36654;45.042;38.994;2022-07-04T12:27:52;10.98;;;5.25;;
50683;SDS011;36654;45.042;38.994;2022-07-04T12:30:27;9.30;;;5.40;;
50683;SDS011;36654;45.042;38.994;2022-07-04T12:33:01;10.93;;;5.70;;
50683;SDS011;36654;45.042;38.994;2022-07-04T12:35:51;13.88;;;5.15;;
50683;SDS011;36654;45.042;38.994;2022-07-04T12:41:03;11.13;;;5.38;;
50683;SDS011;36654;45.042;38.994;2022-07-04T12:46:55;10.32;;;5.70;;
50683;SDS011;36654;45.042;38.994;2022-07-04T12:48:58;11.55;;;5.50;;
50683;SDS011;36654;45.042;38.994;2022-07-04T12:51:27;10.70;;;5.35;;
50683;SDS011;36654;45.042;38.994;2022-07-04T12:53:55;11.07;;;6.15;;
50683;SDS011;36654;45.042;38.994;2022-07-04T12:58:55;9.48;;;5.47;;
50683;SDS011;36654;45.042;38.994;2022-07-04T13:01:21;9.57;;;5.80;;
50683;SDS011;36654;45.042;38.994;2022-07-04T13:03:46;10.15;;;5.55;;
50683;SDS011;36654;45.042;38.994;2022-07-04T13:06:12;8.68;;;5.22;;
50683;SDS011;36654;45.042;38.994;2022-07-04T13:08:38;10.68;;;5.70;;
50683;SDS011;36654;45.042;38.994;2022-07-04T13:11:03;9.65;;;5.90;;
50683;SDS011;36654;45.042;38.994;2022-07-04T13:13:47;10.57;;;5.50;;
50683;SDS011;36654;45.042;38.994;2022-07-04T13:16:13;9.82;;;5.45;;
50683;SDS011;36654;45.042;38.994;2022-07-04T13:18:40;11.15;;;5.50;;
50683;SDS011;36654;45.042;38.994;2022-07-04T13:21:06;11.20;;;5.40;;
50683;SDS011;36654;45.042;38.994;2022-07-04T13:23:31;10.23;;;5.60;;
50683;SDS011;36654;45.042;38.994;2022-07-04T13:25:57;7.63;;;5.03;;
50683;SDS011;36654;45.042;38.994;2022-07-04T13:28:23;9.27;;;5.30;;
50683;SDS011;36654;45.042;38.994;2022-07-04T13:30:49;10.63;;;5.47;;
50683;SDS011;36654;45.042;38.994;2022-07-04T13:33:14;13.63;;;7.93;;
50683;SDS011;36654;45.042;38.994;2022-07-04T13:35:43;13.27;;;5.68;;
50683;SDS011;36654;45.042;38.994;2022-07-04T13:38:09;10.35;;;5.30;;
50683;SDS011;36654;45.042;38.994;2022-07-04T13:40:35;12.30;;;5.88;;
50683;SDS011;36654;45.042;38.994;2022-07-04T13:43:01;10.13;;;5.88;;
50683;SDS011;36654;45.042;38.994;2022-07-04T13:45:28;11.38;;;5.20;;
50683;SDS011;36654;45.042;38.994;2022-07-04T13:47:54;11.55;;;5.18;;
50683;SDS011;36654;45.042;38.994;2022-07-04T13:50:20;13.20;;;5.55;;
50683;SDS011;36654;45.042;38.994;2022-07-04T13:52:47;11.70;;;5.50;;
50683;SDS011;36654;45.042;38.994;2022-07-04T13:55:13;9.80;;;5.22;;
50683;SDS011;36654;45.042;38.994;2022-07-04T13:57:38;9.52;;;5.50;;
50683;SDS011;36654;45.042;38.994;2022-07-04T14:00:05;12.52;;;5.68;;
50683;SDS011;36654;45.042;38.994;2022-07-04T14:02:31;10.85;;;5.28;;
50683;SDS011;36654;45.042;38.994;2022-07-04T14:04:58;9.23;;;4.97;;
50683;SDS011;36654;45.042;38.994;2022-07-04T14:07:23;10.60;;;5.47;;
50683;SDS011;36654;45.042;38.994;2022-07-04T14:09:49;9.85;;;5.13;;
50683;SDS011;36654;45.042;38.994;2022-07-04T14:12:15;14.73;;;5.57;;
50683;SDS011;36654;45.042;38.994;2022-07-04T14:14:41;11.30;;;5.30;;
50683;SDS011;36654;45.042;38.994;2022-07-04T14:17:07;10.27;;;6.25;;
50683;SDS011;36654;45.042;38.994;2022-07-04T14:19:33;10.48;;;5.63;;
50683;SDS011;36654;45.042;38.994;2022-07-04T14:21:59;15.45;;;5.97;;
50683;SDS011;36654;45.042;38.994;2022-07-04T14:24:25;8.25;;;4.80;;
50683;SDS011;36654;45.042;38.994;2022-07-04T14:26:53;12.02;;;5.00;;
50683;SDS011;36654;45.042;38.994;2022-07-04T14:29:19;9.10;;;5.30;;
50683;SDS011;36654;45.042;38.994;2022-07-04T14:31:45;11.38;;;4.80;;
50683;SDS011;36654;45.042;38.994;2022-07-04T14:34:11;10.85;;;5.72;;
50683;SDS011;36654;45.042;38.994;2022-07-04T14:36:37;10.70;;;4.90;;
50683;SDS011;36654;45.042;38.994;2022-07-04T14:39:04;9.32;;;4.53;;
50683;SDS011;36654;45.042;38.994;2022-07-04T14:41:30;8.52;;;4.90;;
50683;SDS011;36654;45.042;38.994;2022-07-04T14:43:55;9.52;;;4.68;;
50683;SDS011;36654;45.042;38.994;2022-07-04T14:46:21;9.13;;;4.63;;
50683;SDS011;36654;45.042;38.994;2022-07-04T14:48:47;9.05;;;4.57;;
50683;SDS011;36654;45.042;38.994;2022-07-04T14:51:12;13.50;;;4.88;;
50683;SDS011;36654;45.042;38.994;2022-07-04T14:53:38;10.98;;;4.80;;
50683;SDS011;36654;45.042;38.994;2022-07-04T14:56:04;9.43;;;4.47;;
50683;SDS011;36654;45.042;38.994;2022-07-04T14:58:30;9.38;;;4.63;;
50683;SDS011;36654;45.042;38.994;2022-07-04T15:00:56;7.45;;;4.50;;
50683;SDS011;36654;45.042;38.994;2022-07-04T15:03:21;9.80;;;5.07;;
50683;SDS011;36654;45.042;38.994;2022-07-04T15:05:47;9.25;;;4.95;;
50683;SDS011;36654;45.042;38.994;2022-07-04T15:08:13;9.82;;;4.38;;
50683;SDS011;36654;45.042;38.994;2022-07-04T15:10:39;8.48;;;4.43;;